Rona II — MPKR2 — position and weather

sailwx.info

Track history (hours):
 
Tides and Currents Weather Stations Pressure Air Temp Water Temp Dewpoint Dewpoint Depression Visibility Wind Speed Wind Dir Waves Ship Positions

Rona II

Last reported at 2014-Aug-22 06:17 UTC. Time now 2014-Aug-23 01:38 UTC.
Position N 49°26' E 000°11'.

Length 22 m.

Type: Sailing vessel. MMSI: 232714000.

Date/timePositionNaut miles runAvg speedWind from/ knotsBaromVisibWave heightAir tempDewpointWater temp
2014-Aug-22 06:17N 49°26' E 000°11'5 6.4
2014-Aug-22 05:33N 49°27' E 000°04'5 4.4
2014-Aug-22 04:30N 49°30' W 000°00'3 2.7
2014-Aug-22 03:33N 49°30' E 000°04'2 1.4
2014-Aug-22 02:26N 49°29' E 000°06'0 0.0
2014-Aug-21 19:05N 49°29' E 000°06'0 0.0
2014-Aug-21 18:23N 49°29' E 000°06'0 0.0
2014-Aug-21 17:23N 49°29' E 000°06'0 0.0
2014-Aug-21 16:23N 49°29' E 000°06'0 0.0
2014-Aug-21 15:29N 49°29' E 000°06'0 0.0
2014-Aug-21 14:23N 49°29' E 000°06'0 0.0
2014-Aug-21 13:17N 49°29' E 000°06'0 0.0
2014-Aug-21 12:29N 49°29' E 000°06'0 0.0
2014-Aug-21 11:32N 49°29' E 000°06'0 0.0
2014-Aug-21 10:32N 49°29' E 000°06'0 0.2
2014-Aug-21 09:33N 49°29' E 000°06'0 0.0
2014-Aug-21 08:27N 49°29' E 000°06'0 0.0
2014-Aug-21 07:33N 49°29' E 000°06'3 3.2
2014-Aug-21 06:31N 49°31' E 000°01'  
2014-Aug-18 23:33N 51°15' E 001°26'6 6.4
2014-Aug-18 22:33N 51°20' E 001°31'6 6.2
2014-Aug-18 21:33N 51°26' E 001°33'19 4.4
2014-Aug-18 17:06N 51°45' E 001°40'4 7.0
2014-Aug-18 16:33N 51°49' E 001°40'7 6.5
2014-Aug-18 15:31N 51°55' E 001°41'7 6.8
2014-Aug-18 14:29N 52°02' E 001°43'7 7.0
2014-Aug-18 13:32N 52°09' E 001°44'  
2014-Aug-16 09:20N 52°27' E 001°47'  
2014-Aug-13 10:32N 53°26' E 005°06'13 3.2
2014-Aug-13 06:33N 53°29' E 005°27'4 1.8
2014-Aug-13 04:30N 53°32' E 005°30'7 7.6
2014-Aug-13 03:32N 53°31' E 005°42'1 0.9
2014-Aug-13 02:33N 53°31' E 005°44'1 1.2
2014-Aug-13 01:30N 53°31' E 005°46'4 3.9
2014-Aug-13 00:33N 53°31' E 005°39'48 5.9
2014-Aug-12 16:32N 53°23' E 006°58'4 3.7
2014-Aug-12 15:31N 53°19' E 006°56'3 3.3
2014-Aug-12 14:33N 53°18' E 006°51'6 4.7
2014-Aug-12 13:13N 53°15' E 006°42'  
Track history (hours):
 
Tides and Currents Weather Stations Pressure Air Temp Water Temp Dewpoint Dewpoint Depression Visibility Wind Speed Wind Dir Waves Ship Positions

Rona II

Last reported at 2014-Aug-22 06:17 UTC. Time now 2014-Aug-23 01:38 UTC.
Position N 49°26' E 000°11'.

Length 22 m.

Type: Sailing vessel. MMSI: 232714000.

Date/timePositionNaut miles runAvg speedWind from/ knotsBaromVisibWave heightAir tempDewpointWater temp
2014-Aug-22 06:17N 49°26' E 000°11'5 6.4
2014-Aug-22 05:33N 49°27' E 000°04'5 4.4
2014-Aug-22 04:30N 49°30' W 000°00'3 2.7
2014-Aug-22 03:33N 49°30' E 000°04'2 1.4
2014-Aug-22 02:26N 49°29' E 000°06'0 0.0
2014-Aug-21 19:05N 49°29' E 000°06'0 0.0
2014-Aug-21 18:23N 49°29' E 000°06'0 0.0
2014-Aug-21 17:23N 49°29' E 000°06'0 0.0
2014-Aug-21 16:23N 49°29' E 000°06'0 0.0
2014-Aug-21 15:29N 49°29' E 000°06'0 0.0
2014-Aug-21 14:23N 49°29' E 000°06'0 0.0
2014-Aug-21 13:17N 49°29' E 000°06'0 0.0
2014-Aug-21 12:29N 49°29' E 000°06'0 0.0
2014-Aug-21 11:32N 49°29' E 000°06'0 0.0
2014-Aug-21 10:32N 49°29' E 000°06'0 0.2
2014-Aug-21 09:33N 49°29' E 000°06'0 0.0
2014-Aug-21 08:27N 49°29' E 000°06'0 0.0
2014-Aug-21 07:33N 49°29' E 000°06'3 3.2
2014-Aug-21 06:31N 49°31' E 000°01'  
2014-Aug-18 23:33N 51°15' E 001°26'6 6.4
2014-Aug-18 22:33N 51°20' E 001°31'6 6.2
2014-Aug-18 21:33N 51°26' E 001°33'19 4.4
2014-Aug-18 17:06N 51°45' E 001°40'4 7.0
2014-Aug-18 16:33N 51°49' E 001°40'7 6.5
2014-Aug-18 15:31N 51°55' E 001°41'7 6.8
2014-Aug-18 14:29N 52°02' E 001°43'7 7.0
2014-Aug-18 13:32N 52°09' E 001°44'  
2014-Aug-16 09:20N 52°27' E 001°47'  
2014-Aug-13 10:32N 53°26' E 005°06'13 3.2
2014-Aug-13 06:33N 53°29' E 005°27'4 1.8
2014-Aug-13 04:30N 53°32' E 005°30'7 7.6
2014-Aug-13 03:32N 53°31' E 005°42'1 0.9
2014-Aug-13 02:33N 53°31' E 005°44'1 1.2
2014-Aug-13 01:30N 53°31' E 005°46'4 3.9
2014-Aug-13 00:33N 53°31' E 005°39'48 5.9
2014-Aug-12 16:32N 53°23' E 006°58'4 3.7
2014-Aug-12 15:31N 53°19' E 006°56'3 3.3
2014-Aug-12 14:33N 53°18' E 006°51'6 4.7
2014-Aug-12 13:13N 53°15' E 006°42'  

Dump ship's entire track history